Time;durP1;ratioP1;P1;durP2;ratioP2;P2;SDS_P1;SDS_P2;PMS_P1;PMS_P2;Temp;Humidity;BMP_temperature;BMP_pressure;BME280_temperature;BME280_humidity;BME280_pressure;Samples;Min_cycle;Max_cycle;Signal;HPM_P1;HPM_P2
2022/05/28 04:05:28;;;;;;;6.30;3.00;;;10.80;99.90;;;;;;5486334;23;20535;-76
2022/05/28 04:07:56;;;;;;;6.67;3.13;;;10.80;99.90;;;;;;5022094;28;20312;-73
2022/05/28 04:10:24;;;;;;;6.50;2.90;;;10.80;99.90;;;;;;5013787;28;20574;-73
2022/05/28 04:12:52;;;;;;;7.13;3.00;;;10.70;99.90;;;;;;5013900;28;20236;-73
2022/05/28 04:15:22;;;;;;;5.60;2.23;;;10.70;99.90;;;;;;5014219;28;20624;-75
2022/05/28 04:17:50;;;;;;;5.63;2.70;;;10.70;99.90;;;;;;5015648;28;20619;-76
2022/05/28 04:20:18;;;;;;;8.70;2.77;;;10.70;99.90;;;;;;5012652;28;20309;-73
2022/05/28 04:22:47;;;;;;;6.27;2.43;;;10.70;99.90;;;;;;5016838;28;20201;-76
2022/05/28 04:25:15;;;;;;;5.03;2.50;;;10.70;99.90;;;;;;5033509;28;20208;-75
2022/05/28 04:27:44;;;;;;;5.10;2.40;;;10.70;99.90;;;;;;5038235;28;20245;-76
2022/05/28 04:30:13;;;;;;;5.07;2.20;;;10.70;99.90;;;;;;5032636;28;20292;-76
2022/05/28 04:32:42;;;;;;;7.50;2.70;;;10.60;99.90;;;;;;5032922;28;20292;-77
2022/05/28 04:35:10;;;;;;;8.33;2.50;;;10.60;99.90;;;;;;5018857;28;20303;-74
2022/05/28 04:37:38;;;;;;;6.03;2.20;;;10.70;99.90;;;;;;5012972;28;20213;-75
2022/05/28 04:40:09;;;;;;;9.37;2.17;;;10.70;99.90;;;;;;5013451;28;20245;-77
2022/05/28 04:42:37;;;;;;;8.20;2.30;;;10.60;99.90;;;;;;5013523;28;20256;-76
2022/05/28 04:45:07;;;;;;;5.83;2.17;;;10.60;99.90;;;;;;5020213;28;20241;-74
2022/05/28 04:47:35;;;;;;;5.83;2.10;;;10.50;99.90;;;;;;5030691;28;20259;-76
2022/05/28 04:50:03;;;;;;;7.83;2.60;;;10.50;99.90;;;;;;5034924;28;20193;-77
2022/05/28 04:52:31;;;;;;;6.10;1.90;;;10.50;99.90;;;;;;5035095;28;20221;-76
2022/05/28 04:54:59;;;;;;;5.43;2.43;;;10.50;99.90;;;;;;5018720;28;20245;-78
2022/05/28 04:57:29;;;;;;;9.03;2.73;;;10.50;99.90;;;;;;5015518;28;20722;-78
2022/05/28 04:59:57;;;;;;;6.13;2.70;;;10.40;99.90;;;;;;5031099;28;20264;-76
2022/05/28 05:02:25;;;;;;;6.90;2.83;;;10.40;99.90;;;;;;5016977;28;20257;-77
2022/05/28 05:04:55;;;;;;;7.30;2.17;;;10.40;99.90;;;;;;5035048;28;20271;-76
2022/05/28 05:07:24;;;;;;;7.73;2.60;;;10.40;99.90;;;;;;5035531;28;20288;-75
2022/05/28 05:09:52;;;;;;;8.10;3.03;;;10.40;99.90;;;;;;5034794;28;20255;-76
2022/05/28 05:12:20;;;;;;;8.17;2.83;;;10.40;99.90;;;;;;5035000;28;20235;-79
2022/05/28 05:14:50;;;;;;;7.93;3.10;;;10.50;99.90;;;;;;5034862;28;20267;-76
2022/05/28 05:17:18;;;;;;;6.93;2.90;;;10.40;99.90;;;;;;5035166;28;20219;-78
2022/05/28 05:19:46;;;;;;;8.20;2.90;;;10.40;99.90;;;;;;5034916;28;20241;-76
2022/05/28 05:22:14;;;;;;;7.43;3.10;;;10.50;99.90;;;;;;5049705;28;20200;-76
2022/05/28 05:24:42;;;;;;;7.00;2.90;;;10.30;99.90;;;;;;5048822;28;20205;-73
2022/05/28 05:27:11;;;;;;;5.03;3.00;;;10.40;99.90;;;;;;5046437;28;20265;-75
2022/05/28 05:29:40;;;;;;;12.87;5.73;;;10.50;99.90;;;;;;5057278;28;20189;-77
2022/05/28 05:32:09;;;;;;;9.53;3.10;;;10.50;99.90;;;;;;5051450;28;20263;-74
2022/05/28 05:34:38;;;;;;;7.27;2.97;;;10.50;99.90;;;;;;5034863;28;20239;-74
2022/05/28 05:37:06;;;;;;;7.97;3.10;;;10.60;99.90;;;;;;5034129;28;20244;-75
2022/05/28 05:39:34;;;;;;;4.97;2.80;;;10.70;99.90;;;;;;5034320;28;20312;-74
2022/05/28 05:42:02;;;;;;;6.77;2.97;;;10.80;99.90;;;;;;5035771;28;20327;-77
2022/05/28 05:44:30;;;;;;;6.70;2.80;;;10.80;99.90;;;;;;5034095;28;20221;-74
2022/05/28 05:46:58;;;;;;;7.77;2.70;;;10.80;99.90;;;;;;5034239;28;20292;-77
2022/05/28 05:49:28;;;;;;;5.07;2.33;;;10.90;99.90;;;;;;5035571;28;20231;-74
2022/05/28 05:51:56;;;;;;;7.27;2.67;;;10.90;99.90;;;;;;5036808;28;20563;-75
2022/05/28 05:54:25;;;;;;;8.67;3.00;;;11.00;99.90;;;;;;5031111;28;20239;-73
2022/05/28 05:56:53;;;;;;;7.93;2.73;;;11.00;99.90;;;;;;5029635;28;20213;-75
2022/05/28 05:59:23;;;;;;;8.70;2.80;;;11.10;99.90;;;;;;5014180;28;20290;-76
2022/05/28 06:01:51;;;;;;;6.63;2.80;;;11.20;99.90;;;;;;5014444;28;20221;-77
2022/05/28 06:04:19;;;;;;;4.97;2.43;;;11.40;99.90;;;;;;5014025;28;20289;-77
2022/05/28 06:06:48;;;;;;;7.50;2.77;;;11.50;99.90;;;;;;5014341;28;20598;-77
2022/05/28 06:09:16;;;;;;;8.13;3.30;;;11.70;99.90;;;;;;5013586;28;20694;-76
2022/05/28 06:11:45;;;;;;;9.80;2.80;;;11.90;99.90;;;;;;5013877;28;20213;-78
2022/05/28 06:14:13;;;;;;;6.10;2.80;;;12.10;99.90;;;;;;5013788;28;20304;-75
2022/05/28 06:16:41;;;;;;;7.57;2.90;;;12.10;99.90;;;;;;5015902;28;20304;-76
2022/05/28 06:19:09;;;;;;;6.40;2.73;;;12.40;99.90;;;;;;5014031;28;20237;-76
2022/05/28 06:21:37;;;;;;;7.43;3.03;;;12.80;99.90;;;;;;5013749;28;20316;-77
2022/05/28 06:24:07;;;;;;;8.17;2.80;;;13.10;99.90;;;;;;5014101;28;20639;-78
2022/05/28 06:26:37;;;;;;;7.33;2.90;;;13.80;99.90;;;;;;5014450;28;20268;-78
2022/05/28 06:29:05;;;;;;;8.30;2.63;;;14.10;99.90;;;;;;5013611;28;20301;-77
2022/05/28 06:31:33;;;;;;;7.07;3.00;;;14.60;99.90;;;;;;5013869;28;20237;-77
2022/05/28 06:34:01;;;;;;;8.30;2.53;;;15.70;99.90;;;;;;5014229;28;20293;-77
2022/05/28 06:36:30;;;;;;;5.87;2.60;;;16.70;99.90;;;;;;5013816;28;20312;-78
2022/05/28 06:38:58;;;;;;;7.00;2.40;;;17.20;99.90;;;;;;5013561;28;20557;-75
2022/05/28 06:41:27;;;;;;;10.83;2.70;;;17.70;99.90;;;;;;5013537;28;20331;-79
2022/05/28 06:43:55;;;;;;;7.60;2.23;;;18.00;99.90;;;;;;5013620;28;20256;-78
2022/05/28 06:46:23;;;;;;;6.40;2.30;;;18.50;99.90;;;;;;5013386;28;20220;-76
2022/05/28 06:48:51;;;;;;;8.23;2.80;;;18.40;99.90;;;;;;5012595;28;20733;-76
2022/05/28 06:51:19;;;;;;;7.43;2.47;;;18.20;99.90;;;;;;5013410;28;20232;-76
2022/05/28 06:53:50;;;;;;;5.87;2.23;;;18.60;99.90;;;;;;5013279;28;20304;-78
2022/05/28 06:56:19;;;;;;;7.57;2.27;;;19.00;99.90;;;;;;5013569;28;20570;-78
2022/05/28 06:58:49;;;;;;;8.33;2.33;;;19.70;99.90;;;;;;5013037;28;20236;-78
2022/05/28 07:01:18;;;;;;;8.07;2.30;;;19.80;96.40;;;;;;5012959;28;20317;-76
2022/05/28 07:03:47;;;;;;;6.30;2.20;;;19.60;96.20;;;;;;5013191;28;20213;-77
2022/05/28 07:06:15;;;;;;;10.20;2.83;;;19.40;96.60;;;;;;5012385;28;20328;-76
2022/05/28 07:08:44;;;;;;;7.70;2.30;;;18.30;97.40;;;;;;5012721;28;20225;-76
2022/05/28 07:11:12;;;;;;;8.33;2.40;;;18.40;98.30;;;;;;5012814;28;20296;-76
2022/05/28 07:13:41;;;;;;;9.07;2.30;;;18.40;97.90;;;;;;5013274;28;20205;-78
2022/05/28 07:16:11;;;;;;;8.10;2.30;;;18.20;96.70;;;;;;5013144;28;20303;-76
2022/05/28 07:18:41;;;;;;;8.67;2.17;;;18.20;95.70;;;;;;5013222;28;20619;-77
2022/05/28 07:21:11;;;;;;;7.70;2.30;;;18.40;98.40;;;;;;5012450;28;20316;-76
2022/05/28 07:23:39;;;;;;;7.23;2.30;;;19.60;96.10;;;;;;5012706;28;20332;-76
2022/05/28 07:26:11;;;;;;;7.00;2.27;;;20.10;94.50;;;;;;5012288;28;20710;-77
2022/05/28 07:28:41;;;;;;;6.90;2.20;;;20.40;94.10;;;;;;5012415;28;20220;-77
2022/05/28 07:31:13;;;;;;;7.87;2.20;;;21.50;90.30;;;;;;5012375;28;20684;-78
2022/05/28 07:33:42;;;;;;;6.73;2.20;;;22.00;87.80;;;;;;5012637;28;20277;-75
2022/05/28 07:36:13;;;;;;;5.43;2.00;;;22.50;84.10;;;;;;5012048;28;20263;-76
2022/05/28 07:38:42;;;;;;;6.07;2.38;;;22.30;86.30;;;;;;5012367;28;20198;-75
2022/05/28 07:41:13;;;;;;;7.65;2.63;;;23.40;84.00;;;;;;5012196;28;20275;-76
2022/05/28 07:43:42;;;;;;;5.15;2.30;;;23.40;78.20;;;;;;5012496;28;20292;-76
2022/05/28 07:46:13;;;;;;;6.47;2.22;;;23.80;78.40;;;;;;5016219;28;20205;-75
2022/05/28 07:48:43;;;;;;;5.53;2.17;;;23.70;76.70;;;;;;5017781;28;20285;-73
2022/05/28 07:51:11;;;;;;;9.45;2.25;;;23.10;75.00;;;;;;5012518;28;20205;-76
2022/05/28 07:53:39;;;;;;;7.30;2.20;;;23.10;75.60;;;;;;5031378;28;20307;-75
2022/05/28 07:56:08;;;;;;;7.03;2.35;;;23.50;77.20;;;;;;5012981;28;20313;-76
2022/05/28 07:58:37;;;;;;;7.30;2.22;;;23.00;78.80;;;;;;5011822;28;20216;-75
2022/05/28 08:01:06;;;;;;;4.97;2.07;;;21.70;77.50;;;;;;5011690;28;20315;-78
2022/05/28 08:03:36;;;;;;;7.73;2.00;;;21.30;78.50;;;;;;5013590;28;20220;-75
2022/05/28 08:06:05;;;;;;;5.87;2.00;;;21.10;77.30;;;;;;5031273;28;20710;-77
2022/05/28 08:08:33;;;;;;;5.80;2.07;;;21.30;77.00;;;;;;5031695;28;20236;-76
2022/05/28 08:11:01;;;;;;;8.50;2.50;;;20.70;79.80;;;;;;5031107;28;20240;-78
2022/05/28 08:13:29;;;;;;;5.83;2.10;;;20.90;79.30;;;;;;5031514;28;20311;-74
2022/05/28 08:16:00;;;;;;;6.03;2.00;;;21.60;79.90;;;;;;5031090;28;20634;-75
2022/05/28 08:18:28;;;;;;;6.60;2.10;;;22.00;73.80;;;;;;5030816;28;20283;-75
2022/05/28 08:23:46;;;;;;;5.67;1.80;;;21.20;78.70;;;;;;5013966;28;20743;-75
2022/05/28 08:26:15;;;;;;;8.27;2.17;;;22.00;77.70;;;;;;5031234;28;20303;-75
2022/05/28 08:28:44;;;;;;;5.03;1.80;;;22.30;75.70;;;;;;5031344;28;20213;-79
2022/05/28 08:31:12;;;;;;;6.07;2.10;;;22.50;72.60;;;;;;5030945;28;20589;-74
2022/05/28 08:33:41;;;;;;;4.90;1.77;;;23.50;75.20;;;;;;5031319;28;20204;-74
2022/05/28 08:36:11;;;;;;;7.10;2.13;;;23.90;72.40;;;;;;5031345;28;20251;-75
2022/05/28 08:38:40;;;;;;;5.20;1.75;;;24.50;66.50;;;;;;5031719;28;20204;-77
2022/05/28 08:41:13;;;;;;;5.72;1.70;;;24.60;68.50;;;;;;5020444;28;20319;-75
2022/05/28 08:43:48;;;;;;;5.68;1.85;;;22.90;67.10;;;;;;5011368;28;20643;-74
2022/05/28 08:46:19;;;;;;;5.63;1.98;;;21.70;68.50;;;;;;5011754;28;20241;-77
2022/05/28 08:48:49;;;;;;;6.00;1.88;;;21.60;70.60;;;;;;5012405;28;20212;-78
2022/05/28 08:51:29;;;;;;;4.45;1.92;;;21.70;71.70;;;;;;5011799;28;20701;-75
2022/05/28 08:54:04;;;;;;;8.35;1.70;;;22.60;69.30;;;;;;5012096;28;20209;-74
2022/05/28 08:56:35;;;;;;;4.63;1.50;;;24.00;64.30;;;;;;5011838;28;20249;-73
2022/05/28 08:59:07;;;;;;;5.32;1.67;;;23.20;65.30;;;;;;5011664;28;20639;-74
2022/05/28 09:01:39;;;;;;;4.63;1.95;;;23.60;68.70;;;;;;5012100;28;20313;-77
2022/05/28 09:04:12;;;;;;;6.63;2.08;;;24.00;66.60;;;;;;5011781;28;20290;-76
2022/05/28 09:06:45;;;;;;;4.63;1.95;;;25.10;64.00;;;;;;5011965;28;20217;-76
2022/05/28 09:09:15;;;;;;;6.63;1.88;;;25.30;62.00;;;;;;5011739;28;20229;-77
2022/05/28 09:11:49;;;;;;;3.72;1.60;;;25.10;63.60;;;;;;5012221;28;20200;-76
2022/05/28 09:14:29;;;;;;;4.80;1.83;;;24.60;60.30;;;;;;5013224;28;20217;-79
2022/05/28 09:17:05;;;;;;;6.03;1.83;;;25.10;62.70;;;;;;5011747;28;20244;-77
2022/05/28 09:19:37;;;;;;;4.82;1.85;;;25.00;63.60;;;;;;5023819;28;20190;-77
2022/05/28 09:22:07;;;;;;;3.97;1.75;;;26.00;61.20;;;;;;5024802;28;20210;-76
2022/05/28 09:24:36;;;;;;;3.53;1.50;;;27.40;54.90;;;;;;5028133;28;20293;-76
2022/05/28 09:27:20;;;;;;;3.72;1.40;;;26.00;57.30;;;;;;5023713;28;20209;-75
2022/05/28 09:30:25;;;;;;;2.83;1.23;;;26.40;54.90;;;;;;5014892;28;20575;-74
2022/05/28 09:33:19;;;;;;;3.47;1.40;;;26.10;57.20;;;;;;5013818;28;20240;-75
2022/05/28 09:36:01;;;;;;;4.05;1.50;;;26.30;58.40;;;;;;5013067;28;20331;-75
2022/05/28 09:38:45;;;;;;;2.55;1.38;;;26.60;55.20;;;;;;5014905;28;20296;-72
2022/05/28 09:41:30;;;;;;;4.43;1.52;;;26.90;54.80;;;;;;5014294;28;20668;-73
2022/05/28 09:44:09;;;;;;;4.25;1.50;;;25.60;55.60;;;;;;5014274;28;20281;-74
2022/05/28 09:46:40;;;;;;;5.72;1.50;;;25.00;56.90;;;;;;5014773;28;20194;-75
2022/05/28 09:49:13;;;;;;;4.80;1.33;;;24.00;58.00;;;;;;5014304;28;20260;-76
2022/05/28 09:51:54;;;;;;;4.40;1.60;;;22.50;59.90;;;;;;5014380;28;20236;-73
2022/05/28 09:54:25;;;;;;;3.07;1.17;;;21.00;64.80;;;;;;5014344;28;20285;-73
2022/05/28 09:56:56;;;;;;;3.57;1.57;;;20.70;69.30;;;;;;5014540;28;20293;-72
2022/05/28 09:59:32;;;;;;;5.43;1.63;;;20.70;68.70;;;;;;5013956;28;20213;-74
2022/05/28 10:02:07;;;;;;;5.13;1.57;;;20.20;68.40;;;;;;5014339;28;20248;-75
2022/05/28 10:04:45;;;;;;;4.20;1.50;;;21.40;69.70;;;;;;5014086;28;20237;-75
2022/05/28 10:07:13;;;;;;;5.23;1.80;;;23.30;68.00;;;;;;5014113;28;20304;-74
2022/05/28 10:09:53;;;;;;;3.85;1.58;;;24.90;63.60;;;;;;5013780;28;20236;-76
2022/05/28 10:12:24;;;;;;;5.18;1.55;;;25.30;61.40;;;;;;5014006;28;20233;-76
2022/05/28 10:15:04;;;;;;;3.50;1.58;;;24.90;60.70;;;;;;5014034;28;20285;-73
2022/05/28 10:17:33;;;;;;;3.03;1.40;;;23.70;61.60;;;;;;5013573;28;20252;-75
2022/05/28 10:20:05;;;;;;;3.03;1.30;;;23.30;62.50;;;;;;5013349;28;20675;-74
2022/05/28 10:22:33;;;;;;;4.73;1.57;;;22.30;61.00;;;;;;5014070;28;20308;-74
2022/05/28 10:25:08;;;;;;;4.93;1.57;;;21.40;63.00;;;;;;5014089;28;20309;-75
2022/05/28 10:27:47;;;;;;;2.57;1.10;;;22.10;67.90;;;;;;5013492;28;20280;-76
2022/05/28 10:30:30;;;;;;;6.70;1.30;;;22.80;67.30;;;;;;5013395;28;20296;-76
2022/05/28 10:33:02;;;;;;;3.20;1.50;;;23.80;63.10;;;;;;5013800;28;20221;-79
2022/05/28 10:35:31;;;;;;;3.97;1.40;;;23.20;61.10;;;;;;5013196;28;20289;-76
2022/05/28 10:38:08;;;;;;;3.27;1.30;;;22.50;64.80;;;;;;5013514;28;20303;-77
2022/05/28 10:40:48;;;;;;;4.30;1.40;;;22.30;64.30;;;;;;5013035;28;20260;-76
2022/05/28 10:43:27;;;;;;;4.00;1.30;;;21.30;64.30;;;;;;5014316;28;20658;-77
2022/05/28 10:46:05;;;;;;;5.30;1.43;;;21.80;66.30;;;;;;5014134;28;20196;-76
2022/05/28 10:48:48;;;;;;;2.23;1.30;;;21.20;63.40;;;;;;5014065;28;20212;-77
2022/05/28 10:51:22;;;;;;;2.63;1.20;;;21.50;66.90;;;;;;5013933;28;20209;-76
2022/05/28 10:54:11;;;;;;;3.73;1.20;;;22.70;64.20;;;;;;5013531;28;20215;-78
2022/05/28 10:56:53;;;;;;;3.70;1.40;;;23.10;64.00;;;;;;5013744;28;20240;-77
2022/05/28 10:59:47;;;;;;;2.03;0.93;;;22.90;63.80;;;;;;5013910;28;20300;-76
2022/05/28 11:02:57;;;;;;;1.90;1.10;;;22.40;65.60;;;;;;5013337;28;20230;-72
2022/05/28 11:05:44;;;;;;;2.70;1.20;;;22.60;64.80;;;;;;4978142;28;20663;-77
2022/05/28 11:08:22;;;;;;;3.70;1.20;;;22.10;61.70;;;;;;5013495;28;20209;-77
2022/05/28 11:11:05;;;;;;;4.00;1.20;;;22.30;63.40;;;;;;4996002;28;20204;-76
2022/05/28 11:13:49;;;;;;;1.83;1.00;;;22.60;65.70;;;;;;5013697;28;20241;-76
2022/05/28 11:16:32;;;;;;;2.00;1.07;;;23.20;62.50;;;;;;5013185;28;20200;-75
2022/05/28 11:19:30;;;;;;;2.60;0.90;;;23.40;59.80;;;;;;5013798;28;20192;-75
2022/05/28 11:22:29;;;;;;;1.63;1.10;;;22.70;59.60;;;;;;5013331;28;20284;-72
2022/05/28 11:25:05;;;;;;;2.53;1.00;;;22.30;63.70;;;;;;4966247;28;20243;-75
2022/05/28 11:27:48;;;;;;;3.43;1.30;;;22.00;61.80;;;;;;5012848;28;20194;-77
2022/05/28 11:30:22;;;;;;;2.40;1.20;;;21.70;66.90;;;;;;5012850;28;20204;-76
2022/05/28 11:32:56;;;;;;;3.00;1.30;;;21.40;65.30;;;;;;5013088;28;20272;-78
2022/05/28 11:35:37;;;;;;;3.93;1.07;;;21.80;64.10;;;;;;5013150;28;20240;-76
2022/05/28 11:38:13;;;;;;;6.90;1.40;;;21.90;65.70;;;;;;5013251;28;20201;-76
2022/05/28 11:40:52;;;;;;;3.70;1.03;;;22.00;61.40;;;;;;5012639;28;20189;-76
2022/05/28 11:43:24;;;;;;;2.67;1.10;;;21.50;64.20;;;;;;5012597;28;20400;-77
2022/05/28 11:45:59;;;;;;;3.47;1.30;;;21.40;67.10;;;;;;5013049;28;20212;-78
2022/05/28 11:51:29;;;;;;;2.83;1.17;;;21.00;67.80;;;;;;5011934;28;20209;-76
2022/05/28 11:54:04;;;;;;;1.20;0.70;;;20.40;69.30;;;;;;5013044;28;20193;-75
2022/05/28 11:56:34;;;;;;;3.30;1.10;;;20.30;67.70;;;;;;5013165;28;20709;-76
2022/05/28 11:59:07;;;;;;;3.20;0.90;;;20.10;69.50;;;;;;5012324;28;20360;-76
2022/05/28 12:01:46;;;;;;;4.20;1.10;;;19.70;67.80;;;;;;5012640;28;20277;-77
2022/05/28 12:04:14;;;;;;;2.83;1.30;;;20.10;68.90;;;;;;5012126;28;20218;-78
2022/05/28 12:06:48;;;;;;;2.40;0.97;;;20.20;68.40;;;;;;5012691;28;20241;-78
2022/05/28 12:09:26;;;;;;;3.00;1.30;;;19.70;61.10;;;;;;5012482;28;20202;-78
2022/05/28 12:12:04;;;;;;;3.43;1.30;;;20.00;70.20;;;;;;5012976;28;20289;-77
2022/05/28 12:14:35;;;;;;;2.43;1.10;;;20.10;65.60;;;;;;5012810;28;20201;-76
2022/05/28 12:17:10;;;;;;;2.37;1.17;;;19.80;65.30;;;;;;5012602;28;20305;-77
2022/05/28 12:19:46;;;;;;;2.70;1.20;;;19.30;65.60;;;;;;5013775;28;20221;-75
2022/05/28 12:22:27;;;;;;;2.60;1.20;;;19.50;70.50;;;;;;5013219;28;20644;-76
2022/05/28 12:25:21;;;;;;;2.23;1.00;;;19.40;69.30;;;;;;5014895;28;20545;-78
2022/05/28 12:28:08;;;;;;;2.87;1.00;;;19.30;65.50;;;;;;5007890;28;20293;-75
2022/05/28 12:30:53;;;;;;;2.83;1.00;;;19.30;69.60;;;;;;5013842;28;20232;-75
2022/05/28 12:33:26;;;;;;;3.90;1.23;;;19.50;67.60;;;;;;5012768;28;20276;-75
2022/05/28 12:36:12;;;;;;;3.03;1.07;;;19.70;69.10;;;;;;5012832;28;20276;-77
2022/05/28 12:38:46;;;;;;;3.70;1.10;;;19.90;65.20;;;;;;5012497;28;20216;-78
2022/05/28 12:41:23;;;;;;;4.10;1.20;;;19.90;69.00;;;;;;5012500;28;20615;-79
2022/05/28 12:43:56;;;;;;;3.03;1.13;;;19.80;70.50;;;;;;5018047;28;20217;-77
2022/05/28 12:46:41;;;;;;;4.13;1.37;;;19.50;70.60;;;;;;5014557;28;20610;-77
2022/05/28 12:49:19;;;;;;;4.37;1.20;;;19.50;67.10;;;;;;5024787;28;20209;-76
2022/05/28 12:52:17;;;;;;;3.03;1.20;;;19.30;69.10;;;;;;5032344;28;20276;-78
2022/05/28 12:54:45;;;;;;;2.83;1.00;;;19.00;68.40;;;;;;5019864;28;20237;-76
2022/05/28 12:57:29;;;;;;;2.03;1.10;;;19.00;66.90;;;;;;5012176;28;20578;-79
2022/05/28 13:00:05;;;;;;;1.83;1.00;;;18.90;65.70;;;;;;5012513;28;20293;-78
2022/05/28 13:02:39;;;;;;;3.57;1.03;;;19.10;66.40;;;;;;5012198;28;20297;-78
2022/05/28 13:05:13;;;;;;;3.70;1.00;;;18.80;65.80;;;;;;5014375;28;20240;-77
2022/05/28 13:07:48;;;;;;;3.57;1.20;;;18.60;69.30;;;;;;5034279;28;20229;-76
2022/05/28 13:10:20;;;;;;;3.93;1.20;;;18.50;69.80;;;;;;5035893;28;20236;-78
2022/05/28 13:12:55;;;;;;;2.57;1.00;;;18.40;69.00;;;;;;5035621;28;20212;-78
2022/05/28 13:15:54;;;;;;;3.10;1.20;;;18.50;68.00;;;;;;5035483;28;20291;-75
2022/05/28 13:18:46;;;;;;;3.30;1.03;;;18.60;71.70;;;;;;5020283;28;20213;-76
2022/05/28 13:21:37;;;;;;;6.03;1.30;;;18.60;70.70;;;;;;5035510;28;20296;-75
2022/05/28 13:24:41;;;;;;;3.60;1.30;;;18.60;68.90;;;;;;5035303;28;20308;-77
2022/05/28 13:27:19;;;;;;;5.13;1.37;;;18.50;72.80;;;;;;5035433;28;20189;-77
2022/05/28 13:30:13;;;;;;;3.03;1.23;;;18.40;70.20;;;;;;5035034;28;20621;-77
2022/05/28 13:32:49;;;;;;;2.27;1.20;;;18.20;71.80;;;;;;5021688;28;20209;-80
2022/05/28 13:35:20;;;;;;;1.73;1.00;;;18.10;70.60;;;;;;5039679;28;20235;-75
2022/05/28 13:37:57;;;;;;;3.57;1.40;;;18.00;69.10;;;;;;5036227;28;20188;-78
2022/05/28 13:40:28;;;;;;;2.83;1.27;;;18.00;70.20;;;;;;5037894;28;20610;-76
2022/05/28 13:43:01;;;;;;;6.17;1.30;;;18.20;71.50;;;;;;5039523;28;20213;-78
2022/05/28 13:45:31;;;;;;;3.00;1.30;;;18.10;72.20;;;;;;5034022;28;20213;-79
2022/05/28 13:48:05;;;;;;;3.67;1.40;;;18.20;73.80;;;;;;5015306;28;20300;-78
2022/05/28 13:50:36;;;;;;;3.23;1.07;;;18.30;75.10;;;;;;5015179;28;20225;-78
2022/05/28 13:53:07;;;;;;;2.40;1.00;;;18.30;72.50;;;;;;5016159;28;20237;-77
2022/05/28 13:55:40;;;;;;;6.37;1.53;;;18.40;75.90;;;;;;5022754;28;20225;-77
2022/05/28 13:58:25;;;;;;;3.77;1.07;;;18.40;73.50;;;;;;5023306;28;20221;-75
2022/05/28 14:00:55;;;;;;;6.17;1.10;;;18.50;70.90;;;;;;5017933;28;20248;-76
2022/05/28 14:03:34;;;;;;;2.40;1.10;;;18.30;70.00;;;;;;5021084;28;20701;-75
2022/05/28 14:06:04;;;;;;;4.87;1.13;;;18.20;71.80;;;;;;5020820;28;20252;-75
2022/05/28 14:08:39;;;;;;;3.90;1.37;;;18.00;71.80;;;;;;5017830;28;20336;-77
2022/05/28 14:11:14;;;;;;;4.70;1.17;;;17.90;75.40;;;;;;5017767;28;20229;-77
2022/05/28 14:13:46;;;;;;;3.20;1.20;;;18.00;71.80;;;;;;5016483;28;20292;-78
2022/05/28 14:16:23;;;;;;;2.67;1.10;;;17.70;72.50;;;;;;5014891;28;20639;-77
2022/05/28 14:18:53;;;;;;;2.57;1.07;;;17.60;74.30;;;;;;5014984;28;20650;-77
2022/05/28 14:21:28;;;;;;;6.03;1.33;;;17.20;73.00;;;;;;5014893;28;20754;-75
2022/05/28 14:23:59;;;;;;;4.87;1.40;;;17.00;74.60;;;;;;5014365;28;20718;-77
2022/05/28 14:26:27;;;;;;;2.93;1.17;;;16.80;75.80;;;;;;5014377;28;20232;-78
2022/05/28 14:29:05;;;;;;;3.03;1.27;;;16.70;77.00;;;;;;5013970;28;20219;-78
2022/05/28 14:31:35;;;;;;;3.37;1.20;;;16.70;78.00;;;;;;5013826;28;20233;-76
2022/05/28 14:34:03;;;;;;;3.70;1.40;;;16.70;76.50;;;;;;5014014;28;20248;-77
2022/05/28 14:36:34;;;;;;;5.27;1.30;;;17.10;76.80;;;;;;5014827;28;20209;-76
2022/05/28 14:39:14;;;;;;;2.93;1.27;;;17.50;75.80;;;;;;5014832;28;20394;-76
2022/05/28 14:41:48;;;;;;;3.50;1.20;;;17.70;74.70;;;;;;5014324;28;20285;-76
2022/05/28 14:44:19;;;;;;;4.53;1.30;;;17.60;72.20;;;;;;5013796;28;20256;-75
2022/05/28 14:46:48;;;;;;;5.00;1.30;;;17.70;74.40;;;;;;5014820;28;20220;-77
2022/05/28 14:49:21;;;;;;;4.37;1.60;;;18.00;73.80;;;;;;5014099;28;20219;-75
2022/05/28 14:51:49;;;;;;;4.80;1.50;;;18.30;73.60;;;;;;5014241;28;20656;-75
2022/05/28 14:54:22;;;;;;;3.80;1.30;;;18.30;75.00;;;;;;5014257;28;20305;-75
2022/05/28 14:56:50;;;;;;;2.17;1.10;;;18.30;70.50;;;;;;5014743;28;20206;-76
2022/05/28 14:59:23;;;;;;;2.63;1.00;;;18.20;73.10;;;;;;5013518;28;20876;-78
2022/05/28 15:01:51;;;;;;;4.33;1.17;;;18.10;73.00;;;;;;5013939;28;20241;-79
2022/05/28 15:04:31;;;;;;;2.90;0.90;;;17.90;72.30;;;;;;5013559;28;20284;-76
2022/05/28 15:07:02;;;;;;;2.73;1.10;;;17.80;74.60;;;;;;5015130;28;20682;-73
2022/05/28 15:09:32;;;;;;;1.83;0.93;;;17.70;74.40;;;;;;5015257;28;20194;-79
2022/05/28 15:12:06;;;;;;;1.93;0.90;;;17.60;76.80;;;;;;5014369;28;20292;-76
2022/05/28 15:14:35;;;;;;;5.07;1.47;;;17.30;75.30;;;;;;5013539;28;20311;-75
2022/05/28 15:17:03;;;;;;;4.40;1.50;;;17.20;77.90;;;;;;5013551;28;20201;-77
2022/05/28 15:19:31;;;;;;;4.43;1.17;;;16.90;73.50;;;;;;5013521;28;20733;-78
2022/05/28 15:22:08;;;;;;;3.37;1.20;;;16.80;77.50;;;;;;5013564;28;20217;-76
2022/05/28 15:24:38;;;;;;;3.17;1.00;;;16.70;75.60;;;;;;5015630;28;20228;-72
2022/05/28 15:27:06;;;;;;;4.50;1.30;;;16.40;78.40;;;;;;5021864;28;20304;-77
2022/05/28 15:29:34;;;;;;;4.13;1.30;;;16.20;78.60;;;;;;5016843;28;20213;-74
2022/05/28 15:32:03;;;;;;;3.10;0.90;;;16.10;79.90;;;;;;5014805;28;20253;-75
2022/05/28 15:34:31;;;;;;;2.63;1.13;;;16.10;78.60;;;;;;5014185;28;20209;-76
2022/05/28 15:39:47;;;;;;;1.97;0.97;;;16.20;80.00;;;;;;5013113;28;20247;-75
2022/05/28 15:42:22;;;;;;;2.80;1.00;;;16.50;77.30;;;;;;5019719;28;20237;-77
2022/05/28 15:44:52;;;;;;;2.37;0.90;;;16.60;75.10;;;;;;5013488;28;20324;-76
2022/05/28 15:47:21;;;;;;;4.60;1.20;;;16.60;74.30;;;;;;5012564;28;20309;-77
2022/05/28 15:49:50;;;;;;;3.40;1.40;;;16.70;76.00;;;;;;5012393;28;20324;-76
2022/05/28 15:52:18;;;;;;;4.70;1.17;;;16.60;76.10;;;;;;5012858;28;20296;-79
2022/05/28 15:54:47;;;;;;;1.60;1.00;;;16.70;76.80;;;;;;5012503;28;20209;-78
2022/05/28 15:57:16;;;;;;;4.60;1.10;;;16.90;75.60;;;;;;5012078;28;20293;-74
2022/05/28 15:59:45;;;;;;;4.30;1.10;;;17.00;78.10;;;;;;5011893;28;20232;-76
2022/05/28 16:02:24;;;;;;;3.23;1.30;;;17.10;76.30;;;;;;5012705;28;20225;-75
2022/05/28 16:04:52;;;;;;;3.00;1.30;;;17.10;75.90;;;;;;5012067;28;20232;-76
2022/05/28 16:07:24;;;;;;;2.47;1.20;;;17.10;76.30;;;;;;5012041;28;20214;-76
2022/05/28 16:09:54;;;;;;;3.97;1.33;;;16.80;75.70;;;;;;5012435;28;20343;-77
2022/05/28 16:12:23;;;;;;;4.60;1.70;;;16.60;76.70;;;;;;5012906;28;20217;-77
2022/05/28 16:14:54;;;;;;;3.17;1.20;;;16.50;77.90;;;;;;5012622;28;20241;-76
2022/05/28 16:17:22;;;;;;;4.30;1.27;;;16.40;77.40;;;;;;5012621;28;20233;-76
2022/05/28 16:19:50;;;;;;;2.93;1.10;;;16.50;74.80;;;;;;5013045;28;20241;-77
2022/05/28 16:22:18;;;;;;;3.57;1.20;;;16.60;75.50;;;;;;5013827;28;20244;-77
2022/05/28 16:24:46;;;;;;;3.33;1.20;;;16.70;74.20;;;;;;5012431;28;20213;-78
2022/05/28 16:27:16;;;;;;;2.90;1.20;;;16.60;74.90;;;;;;5012211;28;20304;-78
2022/05/28 16:29:44;;;;;;;3.10;1.10;;;16.50;76.80;;;;;;5017583;28;20304;-77
2022/05/28 16:32:13;;;;;;;2.73;1.07;;;16.60;78.50;;;;;;5016927;28;20292;-76
2022/05/28 16:34:42;;;;;;;4.90;1.17;;;16.40;77.10;;;;;;5011535;28;20671;-76
2022/05/28 16:37:10;;;;;;;2.70;1.10;;;16.40;75.90;;;;;;5011657;28;20205;-77
2022/05/28 16:39:38;;;;;;;3.83;1.33;;;16.40;78.40;;;;;;5015376;28;20213;-77
2022/05/28 16:42:08;;;;;;;3.83;1.10;;;16.40;79.80;;;;;;5019758;28;20277;-77
2022/05/28 16:44:37;;;;;;;3.10;1.10;;;16.20;79.60;;;;;;5023202;28;20285;-76
2022/05/28 16:47:06;;;;;;;4.10;1.27;;;16.30;80.00;;;;;;5020161;28;20631;-78
2022/05/28 16:49:34;;;;;;;4.33;1.27;;;16.10;80.70;;;;;;5017561;28;20293;-78
2022/05/28 16:52:02;;;;;;;2.30;1.10;;;16.10;80.50;;;;;;5017798;28;20213;-77
2022/05/28 16:54:30;;;;;;;3.77;1.10;;;16.00;78.80;;;;;;5020376;28;20237;-78
2022/05/28 16:56:59;;;;;;;2.90;1.13;;;15.90;79.80;;;;;;5021474;28;20206;-77
2022/05/28 16:59:30;;;;;;;3.20;1.00;;;15.90;82.10;;;;;;5019874;28;20252;-79
2022/05/28 17:01:59;;;;;;;4.87;1.30;;;15.80;83.50;;;;;;5020230;28;20224;-78
2022/05/28 17:04:27;;;;;;;2.50;0.90;;;15.90;84.20;;;;;;5019011;28;20237;-77
2022/05/28 17:06:59;;;;;;;3.23;1.50;;;15.70;82.50;;;;;;5021872;28;20237;-78
2022/05/28 17:09:27;;;;;;;4.83;1.50;;;15.40;82.50;;;;;;5019477;28;20628;-79
2022/05/28 17:11:56;;;;;;;2.43;1.00;;;15.30;82.00;;;;;;5028325;28;20229;-79
2022/05/28 17:14:26;;;;;;;4.57;1.10;;;15.20;82.70;;;;;;5028325;28;20230;-77
2022/05/28 17:16:54;;;;;;;4.47;1.27;;;15.20;84.00;;;;;;5024638;28;20229;-76
2022/05/28 17:19:24;;;;;;;2.93;1.03;;;15.10;85.60;;;;;;5036330;28;20258;-75
2022/05/28 17:21:52;;;;;;;2.90;1.20;;;15.10;86.50;;;;;;5037635;28;20638;-77
2022/05/28 17:24:23;;;;;;;3.30;1.10;;;15.00;85.60;;;;;;5035467;28;20209;-77
2022/05/28 17:26:57;;;;;;;5.63;1.30;;;14.90;85.90;;;;;;5024951;28;20214;-79